Tasman Mariner — VRWW8 — position and weather

sailwx.info

Track history (hours):
 
Tides and Currents Weather Stations Pressure Air Temp Water Temp Dewpoint Dewpoint Depression Visibility Wind Speed Wind Dir Waves Ship Positions

Tasman Mariner

Last reported at 2016-Mar-31 16:08 UTC. Time now 2016-Apr-30 14:59 UTC.
Position N 01°16' E 104°13'.
Warning: this ship's position is 29 days out of date.

Length 184 m; beam 27 m; draft 10 m.

Type: Ship (hazmat cat C). MMSI: 477860000.

Date/timePositionNaut miles runAvg speedWind from/ knotsBaromVisibWave heightAir tempDewpointWater temp
2016-Mar-31 16:08N 01°16' E 104°13'5 9.1
2016-Mar-31 15:33N 01°15' E 104°07'9 8.8
2016-Mar-31 14:33N 01°14' E 103°59'8 8.3
2016-Mar-31 13:32N 01°11' E 103°51'93 9.3
2016-Mar-31 03:33N 01°48' E 102°26'  
2016-Mar-28 01:22N 01°56' E 102°18'810.4
2016-Mar-28 00:33N 01°52' E 102°26'1411.4
2016-Mar-27 23:21N 01°46' E 102°38'1012.2
2016-Mar-27 22:32N 01°41' E 102°47'6711.1
2016-Mar-27 16:33N 01°09' E 103°45'9 8.6
2016-Mar-27 15:33N 01°14' E 103°52'2 2.3
2016-Mar-27 14:32N 01°16' E 103°50'0 0.0
2016-Mar-27 13:32N 01°16' E 103°50'0 0.0
2016-Mar-27 12:32N 01°16' E 103°50'0 0.0
2016-Mar-27 11:26N 01°16' E 103°50'0 0.0
2016-Mar-27 10:29N 01°16' E 103°50'0 0.0
2016-Mar-27 09:32N 01°16' E 103°50'0 0.0
2016-Mar-27 08:29N 01°16' E 103°50'0 0.0
2016-Mar-27 07:32N 01°16' E 103°50'0 0.0
2016-Mar-27 06:29N 01°16' E 103°50'0 0.0
2016-Mar-27 05:32N 01°16' E 103°50'0 0.0
2016-Mar-27 04:32N 01°16' E 103°50'0 0.0
2016-Mar-27 03:32N 01°16' E 103°50'4 3.8
2016-Mar-27 02:33N 01°16' E 103°54'0 0.3
2016-Mar-27 01:26N 01°16' E 103°54'0 0.0
2016-Mar-27 00:26N 01°16' E 103°54'0 0.1
2016-Mar-26 23:32N 01°16' E 103°54'0 0.2
2016-Mar-26 22:32N 01°16' E 103°54'0 0.0
2016-Mar-26 21:32N 01°16' E 103°54'0 0.0
2016-Mar-26 20:32N 01°16' E 103°54'0 0.1
2016-Mar-26 19:26N 01°16' E 103°54'0 0.1
2016-Mar-26 18:19N 01°16' E 103°54'0 0.1
2016-Mar-26 17:28N 01°16' E 103°54'0 0.0
2016-Mar-26 16:25N 01°16' E 103°54'0 0.0
2016-Mar-26 15:25N 01°16' E 103°54'0 0.0
2016-Mar-26 14:28N 01°16' E 103°54'0 0.0
2016-Mar-26 13:28N 01°16' E 103°54'0 0.0
2016-Mar-26 12:31N 01°16' E 103°54'0 0.0
2016-Mar-26 11:30N 01°16' E 103°54'0 0.0
2016-Mar-26 10:33N 01°16' E 103°54'0 0.0
2016-Mar-26 09:27N 01°16' E 103°54'0 0.0
2016-Mar-26 08:24N 01°16' E 103°54'0 0.0
2016-Mar-26 07:24N 01°16' E 103°54'0 0.0
2016-Mar-26 06:18N 01°16' E 103°54'0 0.0
2016-Mar-26 05:30N 01°16' E 103°54'0 0.0
2016-Mar-26 04:30N 01°16' E 103°54'0 0.0
2016-Mar-26 03:18N 01°16' E 103°54'0 0.0
2016-Mar-26 02:30N 01°16' E 103°54'0 0.0
2016-Mar-26 00:12N 01°16' E 103°54'0 0.1
2016-Mar-25 23:24N 01°16' E 103°54'0 0.1
2016-Mar-25 22:30N 01°16' E 103°54'0 0.1
2016-Mar-25 21:18N 01°16' E 103°54'0 0.0
2016-Mar-25 20:30N 01°16' E 103°54'0 0.1
2016-Mar-25 19:18N 01°16' E 103°54'0 0.1
2016-Mar-25 18:30N 01°16' E 103°54'0 0.0
2016-Mar-25 17:18N 01°16' E 103°54'0 0.0
2016-Mar-25 14:12N 01°16' E 103°54'0 0.0
2016-Mar-25 11:33N 01°16' E 103°54'0 0.1
2016-Mar-25 10:30N 01°16' E 103°54'0 0.0
2016-Mar-25 08:30N 01°16' E 103°54'0 0.1
2016-Mar-25 07:30N 01°16' E 103°54'0 0.0
2016-Mar-25 04:21N 01°16' E 103°54'0 0.0
2016-Mar-25 02:30N 01°16' E 103°54'0 0.0
2016-Mar-24 23:30N 01°16' E 103°54'0 0.1
2016-Mar-24 22:18N 01°16' E 103°54'0 0.1
2016-Mar-24 21:27N 01°16' E 103°54'0 0.0
2016-Mar-24 20:30N 01°16' E 103°54'0 0.1
2016-Mar-24 19:30N 01°16' E 103°54'0 0.1
2016-Mar-24 18:21N 01°16' E 103°54'0 0.1
2016-Mar-24 17:27N 01°16' E 103°54'0 0.0
2016-Mar-24 16:18N 01°16' E 103°54'0 0.0
2016-Mar-24 15:30N 01°16' E 103°54'0 0.0
2016-Mar-24 12:12N 01°16' E 103°54'0 0.0
2016-Mar-24 10:21N 01°16' E 103°54'0 0.1
2016-Mar-24 09:24N 01°16' E 103°54'0 0.0
2016-Mar-24 07:13N 01°16' E 103°54'0 0.0
2016-Mar-24 05:25N 01°16' E 103°54'0 0.0
2016-Mar-24 04:31N 01°16' E 103°54'0 0.0
2016-Mar-24 03:31N 01°16' E 103°54'0 0.0
2016-Mar-24 02:31N 01°16' E 103°54'0 0.0
2016-Mar-24 01:19N 01°16' E 103°54'0 0.0
2016-Mar-24 00:31N 01°16' E 103°54'0 0.0
2016-Mar-23 23:22N 01°16' E 103°54'0 0.0
2016-Mar-23 22:25N 01°16' E 103°54'0 0.2
2016-Mar-23 21:31N 01°16' E 103°54'0 0.0
2016-Mar-23 20:31N 01°16' E 103°54'0 0.0
2016-Mar-23 19:31N 01°16' E 103°54'0 0.1
2016-Mar-23 18:19N 01°16' E 103°54'0 0.1
2016-Mar-23 17:31N 01°16' E 103°54'0 0.1
2016-Mar-23 16:19N 01°16' E 103°54'0 0.0
2016-Mar-23 14:07N 01°16' E 103°54'0 0.0
2016-Mar-23 13:10N 01°16' E 103°54'0 0.0
2016-Mar-23 12:19N 01°16' E 103°54'0 0.0
2016-Mar-23 11:25N 01°16' E 103°54'0 0.1
2016-Mar-23 10:19N 01°16' E 103°54'0 0.1
2016-Mar-23 09:31N 01°16' E 103°54'0 0.0
2016-Mar-23 08:31N 01°16' E 103°54'0 0.0
2016-Mar-23 07:19N 01°16' E 103°54'0 0.0
2016-Mar-23 06:31N 01°16' E 103°54'0 0.0
2016-Mar-23 05:19N 01°16' E 103°54'0 0.0
2016-Mar-23 04:31N 01°16' E 103°54'0 0.1
2016-Mar-23 02:04N 01°16' E 103°54'0 0.0
2016-Mar-23 01:25N 01°16' E 103°54'0 0.0
2016-Mar-23 00:22N 01°16' E 103°54'0 0.1
2016-Mar-22 23:25N 01°16' E 103°54'0 0.0
2016-Mar-22 22:31N 01°16' E 103°54'0 0.1
2016-Mar-22 21:22N 01°16' E 103°54'0 0.0
2016-Mar-22 20:31N 01°16' E 103°54'0 0.0
2016-Mar-22 19:31N 01°16' E 103°54'0 0.0
2016-Mar-22 18:31N 01°16' E 103°54'0 0.0
2016-Mar-22 17:16N 01°16' E 103°54'0 0.0
2016-Mar-22 15:31N 01°16' E 103°54'0 0.0
2016-Mar-22 14:31N 01°16' E 103°54'0 0.0
2016-Mar-22 12:31N 01°16' E 103°54'0 0.1
2016-Mar-22 10:25N 01°16' E 103°54'0 0.1
2016-Mar-22 09:22N 01°16' E 103°54'4 4.3
2016-Mar-22 08:32N 01°15' E 103°57'1110.9
2016-Mar-22 07:33N 01°17' E 104°08'  
Track history (hours):
 
Tides and Currents Weather Stations Pressure Air Temp Water Temp Dewpoint Dewpoint Depression Visibility Wind Speed Wind Dir Waves Ship Positions

Tasman Mariner

Last reported at 2016-Mar-31 16:08 UTC. Time now 2016-Apr-30 14:59 UTC.
Position N 01°16' E 104°13'.
Warning: this ship's position is 29 days out of date.

Length 184 m; beam 27 m; draft 10 m.

Type: Ship (hazmat cat C). MMSI: 477860000.

Date/timePositionNaut miles runAvg speedWind from/ knotsBaromVisibWave heightAir tempDewpointWater temp
2016-Mar-31 16:08N 01°16' E 104°13'5 9.1
2016-Mar-31 15:33N 01°15' E 104°07'9 8.8
2016-Mar-31 14:33N 01°14' E 103°59'8 8.3
2016-Mar-31 13:32N 01°11' E 103°51'93 9.3
2016-Mar-31 03:33N 01°48' E 102°26'  
2016-Mar-28 01:22N 01°56' E 102°18'810.4
2016-Mar-28 00:33N 01°52' E 102°26'1411.4
2016-Mar-27 23:21N 01°46' E 102°38'1012.2
2016-Mar-27 22:32N 01°41' E 102°47'6711.1
2016-Mar-27 16:33N 01°09' E 103°45'9 8.6
2016-Mar-27 15:33N 01°14' E 103°52'2 2.3
2016-Mar-27 14:32N 01°16' E 103°50'0 0.0
2016-Mar-27 13:32N 01°16' E 103°50'0 0.0
2016-Mar-27 12:32N 01°16' E 103°50'0 0.0
2016-Mar-27 11:26N 01°16' E 103°50'0 0.0
2016-Mar-27 10:29N 01°16' E 103°50'0 0.0
2016-Mar-27 09:32N 01°16' E 103°50'0 0.0
2016-Mar-27 08:29N 01°16' E 103°50'0 0.0
2016-Mar-27 07:32N 01°16' E 103°50'0 0.0
2016-Mar-27 06:29N 01°16' E 103°50'0 0.0
2016-Mar-27 05:32N 01°16' E 103°50'0 0.0
2016-Mar-27 04:32N 01°16' E 103°50'0 0.0
2016-Mar-27 03:32N 01°16' E 103°50'4 3.8
2016-Mar-27 02:33N 01°16' E 103°54'0 0.3
2016-Mar-27 01:26N 01°16' E 103°54'0 0.0
2016-Mar-27 00:26N 01°16' E 103°54'0 0.1
2016-Mar-26 23:32N 01°16' E 103°54'0 0.2
2016-Mar-26 22:32N 01°16' E 103°54'0 0.0
2016-Mar-26 21:32N 01°16' E 103°54'0 0.0
2016-Mar-26 20:32N 01°16' E 103°54'0 0.1
2016-Mar-26 19:26N 01°16' E 103°54'0 0.1
2016-Mar-26 18:19N 01°16' E 103°54'0 0.1
2016-Mar-26 17:28N 01°16' E 103°54'0 0.0
2016-Mar-26 16:25N 01°16' E 103°54'0 0.0
2016-Mar-26 15:25N 01°16' E 103°54'0 0.0
2016-Mar-26 14:28N 01°16' E 103°54'0 0.0
2016-Mar-26 13:28N 01°16' E 103°54'0 0.0
2016-Mar-26 12:31N 01°16' E 103°54'0 0.0
2016-Mar-26 11:30N 01°16' E 103°54'0 0.0
2016-Mar-26 10:33N 01°16' E 103°54'0 0.0
2016-Mar-26 09:27N 01°16' E 103°54'0 0.0
2016-Mar-26 08:24N 01°16' E 103°54'0 0.0
2016-Mar-26 07:24N 01°16' E 103°54'0 0.0
2016-Mar-26 06:18N 01°16' E 103°54'0 0.0
2016-Mar-26 05:30N 01°16' E 103°54'0 0.0
2016-Mar-26 04:30N 01°16' E 103°54'0 0.0
2016-Mar-26 03:18N 01°16' E 103°54'0 0.0
2016-Mar-26 02:30N 01°16' E 103°54'0 0.0
2016-Mar-26 00:12N 01°16' E 103°54'0 0.1
2016-Mar-25 23:24N 01°16' E 103°54'0 0.1
2016-Mar-25 22:30N 01°16' E 103°54'0 0.1
2016-Mar-25 21:18N 01°16' E 103°54'0 0.0
2016-Mar-25 20:30N 01°16' E 103°54'0 0.1
2016-Mar-25 19:18N 01°16' E 103°54'0 0.1
2016-Mar-25 18:30N 01°16' E 103°54'0 0.0
2016-Mar-25 17:18N 01°16' E 103°54'0 0.0
2016-Mar-25 14:12N 01°16' E 103°54'0 0.0
2016-Mar-25 11:33N 01°16' E 103°54'0 0.1
2016-Mar-25 10:30N 01°16' E 103°54'0 0.0
2016-Mar-25 08:30N 01°16' E 103°54'0 0.1
2016-Mar-25 07:30N 01°16' E 103°54'0 0.0
2016-Mar-25 04:21N 01°16' E 103°54'0 0.0
2016-Mar-25 02:30N 01°16' E 103°54'0 0.0
2016-Mar-24 23:30N 01°16' E 103°54'0 0.1
2016-Mar-24 22:18N 01°16' E 103°54'0 0.1
2016-Mar-24 21:27N 01°16' E 103°54'0 0.0
2016-Mar-24 20:30N 01°16' E 103°54'0 0.1
2016-Mar-24 19:30N 01°16' E 103°54'0 0.1
2016-Mar-24 18:21N 01°16' E 103°54'0 0.1
2016-Mar-24 17:27N 01°16' E 103°54'0 0.0
2016-Mar-24 16:18N 01°16' E 103°54'0 0.0
2016-Mar-24 15:30N 01°16' E 103°54'0 0.0
2016-Mar-24 12:12N 01°16' E 103°54'0 0.0
2016-Mar-24 10:21N 01°16' E 103°54'0 0.1
2016-Mar-24 09:24N 01°16' E 103°54'0 0.0
2016-Mar-24 07:13N 01°16' E 103°54'0 0.0
2016-Mar-24 05:25N 01°16' E 103°54'0 0.0
2016-Mar-24 04:31N 01°16' E 103°54'0 0.0
2016-Mar-24 03:31N 01°16' E 103°54'0 0.0
2016-Mar-24 02:31N 01°16' E 103°54'0 0.0
2016-Mar-24 01:19N 01°16' E 103°54'0 0.0
2016-Mar-24 00:31N 01°16' E 103°54'0 0.0
2016-Mar-23 23:22N 01°16' E 103°54'0 0.0
2016-Mar-23 22:25N 01°16' E 103°54'0 0.2
2016-Mar-23 21:31N 01°16' E 103°54'0 0.0
2016-Mar-23 20:31N 01°16' E 103°54'0 0.0
2016-Mar-23 19:31N 01°16' E 103°54'0 0.1
2016-Mar-23 18:19N 01°16' E 103°54'0 0.1
2016-Mar-23 17:31N 01°16' E 103°54'0 0.1
2016-Mar-23 16:19N 01°16' E 103°54'0 0.0
2016-Mar-23 14:07N 01°16' E 103°54'0 0.0
2016-Mar-23 13:10N 01°16' E 103°54'0 0.0
2016-Mar-23 12:19N 01°16' E 103°54'0 0.0
2016-Mar-23 11:25N 01°16' E 103°54'0 0.1
2016-Mar-23 10:19N 01°16' E 103°54'0 0.1
2016-Mar-23 09:31N 01°16' E 103°54'0 0.0
2016-Mar-23 08:31N 01°16' E 103°54'0 0.0
2016-Mar-23 07:19N 01°16' E 103°54'0 0.0
2016-Mar-23 06:31N 01°16' E 103°54'0 0.0
2016-Mar-23 05:19N 01°16' E 103°54'0 0.0
2016-Mar-23 04:31N 01°16' E 103°54'0 0.1
2016-Mar-23 02:04N 01°16' E 103°54'0 0.0
2016-Mar-23 01:25N 01°16' E 103°54'0 0.0
2016-Mar-23 00:22N 01°16' E 103°54'0 0.1
2016-Mar-22 23:25N 01°16' E 103°54'0 0.0
2016-Mar-22 22:31N 01°16' E 103°54'0 0.1
2016-Mar-22 21:22N 01°16' E 103°54'0 0.0
2016-Mar-22 20:31N 01°16' E 103°54'0 0.0
2016-Mar-22 19:31N 01°16' E 103°54'0 0.0
2016-Mar-22 18:31N 01°16' E 103°54'0 0.0
2016-Mar-22 17:16N 01°16' E 103°54'0 0.0
2016-Mar-22 15:31N 01°16' E 103°54'0 0.0
2016-Mar-22 14:31N 01°16' E 103°54'0 0.0
2016-Mar-22 12:31N 01°16' E 103°54'0 0.1
2016-Mar-22 10:25N 01°16' E 103°54'0 0.1
2016-Mar-22 09:22N 01°16' E 103°54'4 4.3
2016-Mar-22 08:32N 01°15' E 103°57'1110.9
2016-Mar-22 07:33N 01°17' E 104°08'  

Dump ship's entire track history